createdAt,value
2019-05-06T00:01:24.259Z,5.50
2019-05-06T00:03:54.187Z,5.30
2019-05-06T00:06:23.656Z,5.17
2019-05-06T00:08:54.590Z,5.42
2019-05-06T00:11:23.850Z,5.12
2019-05-06T00:13:54.307Z,5.22
2019-05-06T00:16:23.782Z,5.47
2019-05-06T00:18:54.138Z,5.10
2019-05-06T00:21:24.422Z,5.28
2019-05-06T00:23:54.602Z,5.05
2019-05-06T00:26:40.937Z,5.28
2019-05-06T00:29:11.098Z,5.33
2019-05-06T00:31:39.528Z,4.75
2019-05-06T00:34:08.027Z,5.62
2019-05-06T00:36:36.700Z,5.40
2019-05-06T00:39:26.996Z,5.30
2019-05-06T00:42:00.073Z,5.45
2019-05-06T00:44:28.494Z,6.10
2019-05-06T00:46:56.954Z,4.92
2019-05-06T00:49:25.435Z,5.42
2019-05-06T00:51:55.048Z,5.30
2019-05-06T00:54:27.781Z,4.95
2019-05-06T00:56:56.644Z,5.33
2019-05-06T00:59:25.075Z,5.17
2019-05-06T01:01:53.980Z,6.05
2019-05-06T01:04:24.511Z,5.75
2019-05-06T01:06:54.491Z,5.70
2019-05-06T01:09:23.960Z,5.87
2019-05-06T01:11:54.606Z,5.60
2019-05-06T01:14:30.953Z,5.42
2019-05-06T01:16:59.520Z,6.10
2019-05-06T01:19:27.955Z,5.60
2019-05-06T01:21:56.401Z,6.40
2019-05-06T01:24:24.845Z,5.62
2019-05-06T01:26:53.745Z,6.00
2019-05-06T01:29:24.052Z,6.00
2019-05-06T01:31:54.455Z,6.25
2019-05-06T01:34:24.517Z,5.70
2019-05-06T01:36:54.568Z,6.72
2019-05-06T01:39:39.659Z,6.20
2019-05-06T01:42:09.728Z,5.90
2019-05-06T01:44:38.166Z,5.55
2019-05-06T01:47:06.838Z,6.17
2019-05-06T01:49:35.249Z,6.10
2019-05-06T01:52:04.333Z,6.53
2019-05-06T01:54:34.354Z,6.00
2019-05-06T01:57:04.446Z,5.97
2019-05-06T01:59:34.072Z,5.70
2019-05-06T02:02:04.242Z,5.90
2019-05-06T02:04:33.791Z,6.50
2019-05-06T02:07:03.762Z,5.58
2019-05-06T02:09:34.230Z,5.20
2019-05-06T02:12:04.557Z,5.75
2019-05-06T02:14:34.115Z,5.37
2019-05-06T02:17:03.655Z,5.83
2019-05-06T02:19:32.203Z,6.30
2019-05-06T02:22:04.326Z,5.85
2019-05-06T02:24:37.422Z,6.25
2019-05-06T02:27:06.608Z,6.15
2019-05-06T02:29:36.671Z,5.75
2019-05-06T02:32:24.416Z,5.80
2019-05-06T02:35:00.824Z,6.03
2019-05-06T02:37:46.044Z,5.53
2019-05-06T02:40:18.975Z,5.37
2019-05-06T02:42:47.991Z,4.90
2019-05-06T02:45:16.680Z,5.83
2019-05-06T02:47:55.980Z,5.58
2019-05-06T02:50:42.732Z,5.75
2019-05-06T02:53:13.375Z,6.53
2019-05-06T02:55:43.069Z,6.00
2019-05-06T02:58:14.587Z,6.28
2019-05-06T03:00:43.021Z,6.53
2019-05-06T03:03:13.986Z,6.45
2019-05-06T03:05:43.945Z,5.75
2019-05-06T03:08:13.429Z,6.35
2019-05-06T03:10:44.125Z,6.12
2019-05-06T03:13:14.297Z,6.35
2019-05-06T03:15:43.594Z,6.25
2019-05-06T03:18:14.722Z,6.37
2019-05-06T03:20:58.358Z,6.15
2019-05-06T03:23:43.372Z,7.10
2019-05-06T03:26:13.738Z,6.83
2019-05-06T03:28:44.043Z,6.67
2019-05-06T03:31:16.118Z,6.70
2019-05-06T03:34:03.845Z,7.05
2019-05-06T03:36:23.579Z,6.53
2019-05-06T03:38:43.254Z,6.75
2019-05-06T03:41:13.871Z,6.87
2019-05-06T03:43:43.523Z,6.40
2019-05-06T03:46:14.280Z,6.65
2019-05-06T03:48:53.600Z,6.65
2019-05-06T03:51:23.302Z,6.30
2019-05-06T03:53:56.316Z,6.25
2019-05-06T03:56:23.989Z,7.20
2019-05-06T03:58:53.728Z,6.33
2019-05-06T04:01:24.128Z,6.55
2019-05-06T04:03:56.954Z,6.87
2019-05-06T04:06:24.211Z,6.67
2019-05-06T04:08:53.683Z,6.55
2019-05-06T04:11:23.824Z,6.67
2019-05-06T04:13:53.837Z,6.70
2019-05-06T04:16:36.172Z,6.30
2019-05-06T04:19:23.807Z,6.05
2019-05-06T04:21:56.757Z,7.12
2019-05-06T04:24:35.458Z,6.53
2019-05-06T04:27:25.263Z,6.50
2019-05-06T04:29:54.509Z,6.80
2019-05-06T04:32:23.859Z,6.45
2019-05-06T04:34:53.574Z,6.90
2019-05-06T04:37:24.223Z,6.75
2019-05-06T04:39:53.529Z,6.22
2019-05-06T04:42:26.328Z,6.17
2019-05-06T04:44:53.346Z,7.25
2019-05-06T04:47:24.191Z,6.28
2019-05-06T04:49:53.083Z,6.33
2019-05-06T04:52:22.807Z,5.67
2019-05-06T04:54:53.404Z,6.45
2019-05-06T04:57:23.828Z,6.50
2019-05-06T04:59:54.186Z,5.87
2019-05-06T05:02:23.135Z,5.97
2019-05-06T05:04:53.216Z,6.60
2019-05-06T05:07:22.492Z,5.97
2019-05-06T05:09:53.634Z,6.55
2019-05-06T05:12:39.169Z,6.22
2019-05-06T05:15:12.431Z,6.17
2019-05-06T05:17:45.497Z,6.62
2019-05-06T05:20:13.999Z,7.20
2019-05-06T05:22:42.500Z,6.62
2019-05-06T05:25:12.276Z,6.80
2019-05-06T05:27:42.104Z,6.55
2019-05-06T05:30:12.434Z,6.20
2019-05-06T05:32:42.791Z,6.08
2019-05-06T05:35:12.753Z,5.62
2019-05-06T05:37:41.992Z,5.83
2019-05-06T05:40:12.999Z,5.17
2019-05-06T05:42:43.477Z,5.35
2019-05-06T05:45:12.916Z,4.85
2019-05-06T05:47:42.519Z,4.67
2019-05-06T05:50:18.597Z,5.10
2019-05-06T05:52:47.054Z,5.35
2019-05-06T05:55:15.476Z,5.10
2019-05-06T05:57:44.089Z,5.67
2019-05-06T06:00:13.054Z,5.35
2019-05-06T06:02:43.658Z,5.17
2019-05-06T06:05:12.498Z,4.62
2019-05-06T06:07:42.224Z,5.17
2019-05-06T06:10:22.589Z,5.47
2019-05-06T06:12:52.868Z,5.53
2019-05-06T06:15:25.977Z,4.92
2019-05-06T06:17:59.531Z,5.30
2019-05-06T06:20:46.068Z,5.08
2019-05-06T06:23:16.264Z,5.28
2019-05-06T06:25:44.708Z,5.25
2019-05-06T06:28:13.125Z,5.35
2019-05-06T06:30:49.125Z,5.17
2019-05-06T06:33:17.839Z,5.30
2019-05-06T06:35:54.155Z,5.85
2019-05-06T06:38:32.262Z,5.08
2019-05-06T06:41:02.553Z,5.40
2019-05-06T06:43:32.425Z,5.25
2019-05-06T06:46:02.509Z,5.20
2019-05-06T06:48:32.033Z,5.37
2019-05-06T06:51:03.278Z,5.35
2019-05-06T06:53:32.723Z,4.90
2019-05-06T06:56:03.196Z,4.90
2019-05-06T06:58:33.255Z,4.70
2019-05-06T07:01:03.385Z,4.25
2019-05-06T07:03:39.942Z,4.80
2019-05-06T07:06:12.749Z,4.72
2019-05-06T07:08:42.620Z,4.40
2019-05-06T07:11:13.061Z,4.62
2019-05-06T07:13:44.525Z,3.95
2019-05-06T07:16:12.958Z,4.35
2019-05-06T07:18:42.732Z,4.08
2019-05-06T07:21:14.008Z,4.28
2019-05-06T07:23:42.681Z,4.55
2019-05-06T07:26:12.804Z,3.65
2019-05-06T07:28:43.648Z,3.92
2019-05-06T07:31:21.907Z,4.58
2019-05-06T07:33:42.863Z,3.90
2019-05-06T07:36:13.079Z,3.75
2019-05-06T07:38:43.405Z,3.85
2019-05-06T07:41:19.793Z,3.80
2019-05-06T07:43:59.037Z,3.47
2019-05-06T07:46:33.099Z,3.10
2019-05-06T07:49:03.333Z,2.80
2019-05-06T07:51:32.592Z,3.00
2019-05-06T07:54:02.793Z,3.12
2019-05-06T07:56:32.206Z,3.27
2019-05-06T07:59:09.536Z,2.92
2019-05-06T08:01:43.844Z,3.90
2019-05-06T08:04:12.829Z,3.42
2019-05-06T08:06:42.737Z,3.70
2019-05-06T08:09:12.994Z,3.30
2019-05-06T08:11:42.241Z,3.40
2019-05-06T08:14:12.956Z,3.08
2019-05-06T08:16:46.491Z,3.80
2019-05-06T08:19:14.916Z,3.25
2019-05-06T08:21:45.018Z,3.08
2019-05-06T08:24:13.440Z,3.52
2019-05-06T08:26:42.830Z,3.20
2019-05-06T08:29:12.176Z,3.08
2019-05-06T08:31:43.064Z,3.12
2019-05-06T08:34:12.281Z,3.12
2019-05-06T08:36:43.260Z,3.12
2019-05-06T08:39:13.089Z,3.02
2019-05-06T08:41:42.306Z,2.85
2019-05-06T08:44:12.755Z,3.00
2019-05-06T08:46:43.242Z,3.10
2019-05-06T08:49:12.285Z,2.72
2019-05-06T08:51:42.800Z,2.62
2019-05-06T08:54:32.487Z,2.47
2019-05-06T08:57:02.561Z,2.55
2019-05-06T08:59:32.114Z,3.02
2019-05-06T09:02:03.244Z,3.12
2019-05-06T09:04:32.127Z,2.70
2019-05-06T09:07:02.729Z,3.08
2019-05-06T09:09:32.554Z,2.70
2019-05-06T09:12:02.653Z,2.35
2019-05-06T09:14:32.635Z,2.60
2019-05-06T09:17:02.914Z,2.52
2019-05-06T09:19:33.172Z,3.15
2019-05-06T09:22:02.528Z,3.15
2019-05-06T09:24:32.084Z,3.20
2019-05-06T09:27:03.113Z,3.60
2019-05-06T09:29:36.161Z,3.75
2019-05-06T09:32:06.230Z,3.30
2019-05-06T09:34:52.673Z,2.72
2019-05-06T09:37:24.067Z,2.40
2019-05-06T09:39:53.483Z,2.30
2019-05-06T09:42:23.321Z,1.85
2019-05-06T09:44:54.212Z,2.22
2019-05-06T09:47:24.005Z,1.70
2019-05-06T09:49:53.263Z,2.00
2019-05-06T09:52:23.119Z,1.80
2019-05-06T09:54:59.739Z,2.22
2019-05-06T09:57:45.932Z,1.70
2019-05-06T10:00:16.989Z,1.62
2019-05-06T10:02:45.432Z,2.05
2019-05-06T10:05:14.015Z,2.10
2019-05-06T10:07:42.530Z,2.12
2019-05-06T10:10:11.278Z,1.80
2019-05-06T10:12:41.957Z,1.92
2019-05-06T10:15:12.717Z,1.75
2019-05-06T10:17:42.902Z,1.63
2019-05-06T10:20:12.770Z,1.22
2019-05-06T10:22:43.094Z,1.70
2019-05-06T10:25:13.428Z,1.27
2019-05-06T10:27:43.816Z,1.50
2019-05-06T10:30:14.561Z,1.60
2019-05-06T10:32:47.306Z,1.35
2019-05-06T10:35:16.327Z,1.50
2019-05-06T10:37:59.831Z,1.77
2019-05-06T10:40:48.613Z,1.85
2019-05-06T10:43:29.033Z,1.42
2019-05-06T10:46:00.885Z,1.57
2019-05-06T10:48:27.906Z,1.60
2019-05-06T10:51:04.433Z,2.10
2019-05-06T10:53:33.077Z,2.22
2019-05-06T10:56:03.222Z,1.67
2019-05-06T10:58:32.656Z,2.00
2019-05-06T11:01:12.570Z,2.22
2019-05-06T11:03:42.005Z,2.10
2019-05-06T11:06:12.970Z,2.30
2019-05-06T11:08:42.070Z,2.15
2019-05-06T11:11:17.049Z,2.20
2019-05-06T11:13:43.829Z,1.72
2019-05-06T11:16:12.981Z,2.15
2019-05-06T11:18:42.641Z,2.25
2019-05-06T11:21:12.724Z,2.20
2019-05-06T11:23:41.884Z,1.77
2019-05-06T11:26:10.439Z,1.90
2019-05-06T11:28:42.592Z,1.75
2019-05-06T11:31:29.244Z,1.72
2019-05-06T11:34:12.611Z,1.90
2019-05-06T11:36:52.520Z,1.87
2019-05-06T11:39:23.334Z,1.55
2019-05-06T11:42:06.284Z,1.50
2019-05-06T11:44:23.973Z,1.50
2019-05-06T11:46:52.370Z,1.32
2019-05-06T11:49:23.251Z,1.87
2019-05-06T11:51:51.645Z,2.00
2019-05-06T11:54:23.649Z,1.80
2019-05-06T11:56:54.336Z,2.15
2019-05-06T11:59:22.801Z,2.47
2019-05-06T12:01:53.541Z,2.27
2019-05-06T12:04:23.013Z,2.47
2019-05-06T12:06:57.275Z,2.67
2019-05-06T12:09:22.407Z,2.10
2019-05-06T12:11:52.826Z,1.85
2019-05-06T12:14:22.661Z,1.85
2019-05-06T12:16:54.809Z,1.75
2019-05-06T12:19:22.523Z,2.00
2019-05-06T12:21:51.385Z,1.98
2019-05-06T12:24:19.886Z,2.35
2019-05-06T12:26:48.308Z,2.12
2019-05-06T12:29:16.939Z,2.33
2019-05-06T12:31:47.057Z,2.70
2019-05-06T12:34:15.743Z,2.65
2019-05-06T12:36:47.404Z,2.50
2019-05-06T12:39:19.655Z,2.35
2019-05-06T12:42:04.843Z,1.98
2019-05-06T12:44:34.993Z,1.95
2019-05-06T12:47:13.405Z,2.20
2019-05-06T12:49:42.606Z,2.00
2019-05-06T12:52:12.376Z,1.90
2019-05-06T12:54:42.997Z,2.15
2019-05-06T12:57:12.584Z,1.87
2019-05-06T12:59:42.498Z,2.08
2019-05-06T13:02:13.230Z,2.37
2019-05-06T13:04:51.744Z,2.77
2019-05-06T13:07:13.421Z,2.30
2019-05-06T13:09:44.982Z,2.17
2019-05-06T13:12:13.965Z,2.50
2019-05-06T13:14:43.062Z,2.45
2019-05-06T13:17:13.439Z,2.00
2019-05-06T13:19:42.865Z,2.05
2019-05-06T13:22:13.570Z,2.22
2019-05-06T13:24:42.284Z,2.10
2019-05-06T13:27:12.672Z,2.58
2019-05-06T13:29:42.906Z,1.95
2019-05-06T13:32:13.270Z,2.40
2019-05-06T13:34:42.435Z,2.08
2019-05-06T13:37:12.839Z,2.60
2019-05-06T13:39:43.530Z,2.25
2019-05-06T13:42:13.426Z,2.10
2019-05-06T13:44:42.555Z,2.37
2019-05-06T13:47:13.084Z,2.27
2019-05-06T13:49:52.353Z,2.65
2019-05-06T13:52:22.938Z,2.60
2019-05-06T13:54:52.989Z,2.45
2019-05-06T13:57:21.567Z,2.55
2019-05-06T13:59:52.963Z,2.00
2019-05-06T14:02:30.655Z,2.20
2019-05-06T14:04:59.495Z,2.08
2019-05-06T14:07:27.940Z,2.58
2019-05-06T14:09:56.356Z,2.02
2019-05-06T14:12:24.840Z,2.33
2019-05-06T14:14:53.267Z,2.10
2019-05-06T14:17:22.490Z,2.40
2019-05-06T14:19:53.134Z,2.12
2019-05-06T14:22:23.199Z,2.70
2019-05-06T14:25:00.066Z,2.50
2019-05-06T14:27:28.516Z,3.30
2019-05-06T14:29:58.596Z,3.05
2019-05-06T14:32:27.079Z,4.15
2019-05-06T14:34:55.613Z,4.30
2019-05-06T14:37:24.041Z,3.47
2019-05-06T14:39:59.229Z,1.82
2019-05-06T14:42:24.696Z,2.35
2019-05-06T14:44:53.120Z,1.95
2019-05-06T14:47:26.416Z,1.95
2019-05-06T14:49:54.856Z,2.30
2019-05-06T14:52:23.790Z,2.00
2019-05-06T14:54:53.996Z,2.20
2019-05-06T14:57:23.392Z,2.20
2019-05-06T14:59:55.224Z,2.08
2019-05-06T15:02:26.097Z,2.20
2019-05-06T15:04:54.016Z,2.40
2019-05-06T15:07:22.434Z,2.58
2019-05-06T15:10:07.868Z,2.02
2019-05-06T15:12:22.878Z,1.70
2019-05-06T15:14:58.203Z,2.33
2019-05-06T15:17:26.639Z,2.00
2019-05-06T15:19:55.065Z,1.92
2019-05-06T15:22:23.591Z,2.75
2019-05-06T15:24:53.599Z,2.15
2019-05-06T15:27:22.963Z,2.30
2019-05-06T15:29:54.356Z,1.90
2019-05-06T15:32:27.552Z,1.98
2019-05-06T15:34:57.591Z,2.15
2019-05-06T15:37:27.878Z,1.92
2019-05-06T15:39:56.298Z,2.30
2019-05-06T15:42:24.747Z,2.05
2019-05-06T15:44:53.550Z,2.60
2019-05-06T15:47:22.811Z,2.42
2019-05-06T15:49:52.652Z,2.33
2019-05-06T15:52:23.506Z,2.65
2019-05-06T15:54:52.490Z,2.60
2019-05-06T15:57:22.852Z,2.02
2019-05-06T15:59:52.989Z,2.20
2019-05-06T16:02:23.344Z,2.87
2019-05-06T16:04:51.996Z,2.65
2019-05-06T16:07:24.472Z,2.77
2019-05-06T16:09:55.006Z,3.08
2019-05-06T16:12:22.058Z,3.02
2019-05-06T16:14:52.995Z,2.83
2019-05-06T16:17:23.592Z,2.98
2019-05-06T16:19:51.034Z,2.80
2019-05-06T16:22:22.394Z,2.75
2019-05-06T16:25:09.833Z,2.72
2019-05-06T16:27:38.645Z,2.92
2019-05-06T16:30:09.411Z,4.30
2019-05-06T16:32:37.874Z,2.98
2019-05-06T16:35:06.863Z,2.70
2019-05-06T16:37:35.631Z,2.98
2019-05-06T16:40:05.109Z,2.90
2019-05-06T16:42:33.660Z,2.58
2019-05-06T16:45:06.880Z,2.52
2019-05-06T16:47:44.383Z,2.67
2019-05-06T16:50:16.943Z,2.45
2019-05-06T16:52:45.826Z,2.47
2019-05-06T16:55:17.849Z,2.42
2019-05-06T16:57:52.462Z,1.85
2019-05-06T17:00:23.162Z,2.50
2019-05-06T17:02:57.893Z,2.92
2019-05-06T17:05:37.290Z,2.00
2019-05-06T17:08:05.848Z,1.85
2019-05-06T17:10:34.603Z,2.33
2019-05-06T17:13:03.164Z,2.10
2019-05-06T17:15:32.600Z,1.98
2019-05-06T17:18:03.094Z,1.95
2019-05-06T17:20:32.560Z,2.50
2019-05-06T17:23:02.843Z,1.65
2019-05-06T17:25:32.918Z,1.80
2019-05-06T17:28:03.765Z,2.40
2019-05-06T17:30:46.528Z,3.10
2019-05-06T17:33:33.422Z,2.52
2019-05-06T17:36:03.037Z,2.60
2019-05-06T17:38:33.240Z,2.22
2019-05-06T17:41:02.999Z,2.52
2019-05-06T17:43:32.979Z,2.05
2019-05-06T17:46:04.901Z,2.45
2019-05-06T17:48:43.028Z,1.70
2019-05-06T17:51:19.371Z,2.27
2019-05-06T17:53:52.508Z,2.72
2019-05-06T17:56:22.265Z,2.12
2019-05-06T17:58:52.936Z,2.87
2019-05-06T18:01:33.124Z,1.80
2019-05-06T18:04:02.296Z,2.42
2019-05-06T18:06:32.995Z,3.58
2019-05-06T18:09:02.510Z,2.50
2019-05-06T18:11:33.227Z,1.80
2019-05-06T18:14:03.785Z,1.92
2019-05-06T18:16:33.451Z,2.10
2019-05-06T18:19:03.144Z,2.45
2019-05-06T18:21:31.887Z,2.45
2019-05-06T18:24:02.353Z,1.80
2019-05-06T18:26:33.355Z,2.20
2019-05-06T18:29:02.261Z,2.17
2019-05-06T18:31:32.900Z,2.12
2019-05-06T18:34:03.255Z,1.80
2019-05-06T18:36:31.135Z,1.98
2019-05-06T18:39:00.053Z,2.22
2019-05-06T18:41:29.420Z,2.20
2019-05-06T18:43:58.124Z,3.10
2019-05-06T18:46:26.739Z,3.55
2019-05-06T18:48:55.176Z,3.52
2019-05-06T18:51:23.603Z,2.75
2019-05-06T18:53:52.527Z,2.98
2019-05-06T18:56:22.366Z,2.90
2019-05-06T18:58:53.108Z,3.52
2019-05-06T19:01:23.277Z,1.87
2019-05-06T19:03:59.648Z,1.87
2019-05-06T19:06:28.126Z,1.92
2019-05-06T19:08:58.172Z,2.02
2019-05-06T19:11:26.658Z,2.70
2019-05-06T19:13:55.582Z,2.10
2019-05-06T19:16:24.008Z,2.37
2019-05-06T19:18:52.512Z,5.22
2019-05-06T19:21:27.388Z,2.72
2019-05-06T19:23:55.826Z,2.45
2019-05-06T19:26:24.532Z,2.42
2019-05-06T19:28:53.293Z,1.85
2019-05-06T19:31:22.917Z,2.45
2019-05-06T19:33:52.634Z,2.52
2019-05-06T19:36:23.558Z,2.17
2019-05-06T19:38:51.444Z,2.10
2019-05-06T19:41:22.216Z,2.20
2019-05-06T19:43:52.254Z,2.40
2019-05-06T19:46:20.537Z,2.60
2019-05-06T19:48:49.262Z,2.02
2019-05-06T19:51:17.727Z,2.30
2019-05-06T19:53:46.190Z,2.40
2019-05-06T19:56:14.630Z,2.52
2019-05-06T19:58:43.281Z,2.42
2019-05-06T20:01:11.933Z,2.98
2019-05-06T20:03:40.300Z,2.22
2019-05-06T20:06:28.485Z,2.87
2019-05-06T20:09:02.288Z,3.00
2019-05-06T20:11:33.195Z,3.58
2019-05-06T20:14:02.131Z,3.40
2019-05-06T20:16:32.300Z,3.98
2019-05-06T20:19:02.330Z,3.37
2019-05-06T20:21:32.843Z,3.52
2019-05-06T20:24:02.362Z,3.12
2019-05-06T20:26:32.410Z,2.70
2019-05-06T20:29:02.211Z,2.92
2019-05-06T20:31:32.164Z,2.40
2019-05-06T20:34:02.236Z,2.58
2019-05-06T20:36:33.032Z,2.60
2019-05-06T20:39:02.567Z,2.75
2019-05-06T20:41:32.900Z,2.65
2019-05-06T20:44:02.670Z,2.40
2019-05-06T20:46:32.344Z,2.60
2019-05-06T20:49:02.421Z,2.40
2019-05-06T20:51:32.792Z,2.33
2019-05-06T20:54:01.208Z,2.17
2019-05-06T20:56:29.682Z,2.70
2019-05-06T20:58:58.124Z,2.65
2019-05-06T21:01:26.751Z,1.98
2019-05-06T21:03:55.227Z,2.40
2019-05-06T21:06:24.933Z,1.95
2019-05-06T21:08:53.590Z,2.30
2019-05-06T21:11:28.832Z,2.12
2019-05-06T21:13:52.240Z,2.45
2019-05-06T21:16:22.525Z,1.95
2019-05-06T21:18:52.122Z,2.45
2019-05-06T21:21:20.710Z,2.05
2019-05-06T21:23:49.369Z,2.62
2019-05-06T21:26:17.872Z,1.65
2019-05-06T21:28:46.552Z,1.80
2019-05-06T21:31:15.406Z,2.47
2019-05-06T21:33:44.076Z,2.20
2019-05-06T21:36:12.536Z,2.37
2019-05-06T21:38:42.706Z,1.90
2019-05-06T21:41:12.359Z,1.65
2019-05-06T21:43:46.946Z,2.10
2019-05-06T21:46:12.988Z,2.10
2019-05-06T21:48:42.117Z,1.98
2019-05-06T21:51:12.286Z,1.87
2019-05-06T21:53:40.813Z,1.85
2019-05-06T21:56:09.606Z,2.10
2019-05-06T21:58:38.033Z,2.27
2019-05-06T22:01:08.254Z,1.98
2019-05-06T22:03:36.832Z,1.95
2019-05-06T22:06:05.352Z,2.92
2019-05-06T22:08:33.871Z,2.05
2019-05-06T22:11:03.081Z,2.65
2019-05-06T22:13:33.271Z,2.17
2019-05-06T22:16:04.855Z,2.52
2019-05-06T22:18:32.715Z,2.58
2019-05-06T22:21:17.851Z,2.20
2019-05-06T22:23:57.103Z,2.47
2019-05-06T22:26:27.148Z,2.33
2019-05-06T22:28:56.217Z,3.00
2019-05-06T22:31:26.988Z,2.67
2019-05-06T22:33:55.666Z,2.65
2019-05-06T22:36:24.312Z,2.62
2019-05-06T22:38:53.181Z,2.35
2019-05-06T22:41:23.307Z,2.52
2019-05-06T22:43:53.165Z,2.52
2019-05-06T22:46:23.448Z,2.87
2019-05-06T22:48:54.358Z,3.02
2019-05-06T22:51:22.971Z,2.92
2019-05-06T22:53:53.285Z,3.10
2019-05-06T22:56:23.005Z,2.60
2019-05-06T22:58:52.396Z,3.00
2019-05-06T23:01:32.466Z,2.37
2019-05-06T23:04:02.086Z,2.50
2019-05-06T23:06:32.839Z,3.00
2019-05-06T23:09:02.573Z,3.37
2019-05-06T23:11:32.765Z,3.45
2019-05-06T23:14:02.770Z,3.30
2019-05-06T23:16:33.079Z,2.70
2019-05-06T23:19:02.176Z,2.87
2019-05-06T23:21:30.655Z,2.92
2019-05-06T23:23:59.098Z,3.20
2019-05-06T23:26:27.663Z,3.00
2019-05-06T23:28:56.077Z,3.02
2019-05-06T23:31:24.770Z,3.08
2019-05-06T23:33:53.448Z,2.67
2019-05-06T23:36:22.906Z,2.85
2019-05-06T23:39:28.187Z,2.92
2019-05-06T23:42:33.050Z,3.37
2019-05-06T23:45:37.972Z,3.17
2019-05-06T23:48:43.040Z,3.47
2019-05-06T23:51:47.829Z,2.92
2019-05-06T23:54:52.841Z,2.65
2019-05-06T23:57:22.885Z,3.00
2019-05-06T23:59:51.877Z,3.20
